createdAt,value
2024-02-13T00:00:12.887Z,5.03
2024-02-13T00:02:43.047Z,5.50
2024-02-13T00:05:12.560Z,3.97
2024-02-13T00:07:41.380Z,2.73
2024-02-13T00:10:12.612Z,7.13
2024-02-13T00:12:41.788Z,4.93
2024-02-13T00:15:15.821Z,4.13
2024-02-13T00:17:46.085Z,8.20
2024-02-13T00:20:15.364Z,6.53
2024-02-13T00:22:44.593Z,8.30
2024-02-13T00:25:14.814Z,3.57
2024-02-13T00:27:43.940Z,3.67
2024-02-13T00:30:13.586Z,4.50
2024-02-13T00:32:41.996Z,5.13
2024-02-13T00:35:11.139Z,3.10
2024-02-13T00:37:40.107Z,4.53
2024-02-13T00:40:11.461Z,4.63
2024-02-13T00:42:41.685Z,4.30
2024-02-13T00:45:12.010Z,6.73
2024-02-13T00:47:41.851Z,3.57
2024-02-13T00:50:11.061Z,6.37
2024-02-13T00:52:41.902Z,4.07
2024-02-13T00:55:11.150Z,2.43
2024-02-13T00:57:41.292Z,4.50
2024-02-13T01:00:12.891Z,7.00
2024-02-13T01:02:41.618Z,8.50
2024-02-13T01:05:11.428Z,4.17
2024-02-13T01:07:41.341Z,4.70
2024-02-13T01:10:10.541Z,8.33
2024-02-13T01:12:40.272Z,6.60
2024-02-13T01:15:11.228Z,5.97
2024-02-13T01:17:39.722Z,4.03
2024-02-13T01:20:12.496Z,6.10
2024-02-13T01:22:43.216Z,8.40
2024-02-13T01:25:15.227Z,8.17
2024-02-13T01:27:44.073Z,4.83
2024-02-13T01:30:15.102Z,5.27
2024-02-13T01:32:43.746Z,6.20
2024-02-13T01:35:14.984Z,6.23
2024-02-13T01:37:43.429Z,5.03
2024-02-13T01:40:13.442Z,5.57
2024-02-13T01:42:42.249Z,6.50
2024-02-13T01:45:13.849Z,7.37
2024-02-13T01:47:44.277Z,5.93
2024-02-13T01:50:15.610Z,6.23
2024-02-13T01:52:44.368Z,6.77
2024-02-13T01:55:14.660Z,6.07
2024-02-13T01:57:42.995Z,7.43
2024-02-13T02:00:15.677Z,6.73
2024-02-13T02:02:47.312Z,9.23
2024-02-13T02:05:16.195Z,5.37
2024-02-13T02:07:44.968Z,4.53
2024-02-13T02:10:13.603Z,5.97
2024-02-13T02:12:42.604Z,5.77
2024-02-13T02:15:11.869Z,9.47
2024-02-13T02:17:41.920Z,10.13
2024-02-13T02:20:10.999Z,7.63
2024-02-13T02:22:38.400Z,5.97
2024-02-13T02:25:10.513Z,8.93
2024-02-13T02:27:39.855Z,9.40
2024-02-13T02:30:10.164Z,5.57
2024-02-13T02:32:38.704Z,6.60
2024-02-13T02:35:08.156Z,6.07
2024-02-13T02:37:37.904Z,7.90
2024-02-13T02:40:09.790Z,4.87
2024-02-13T02:42:38.025Z,10.73
2024-02-13T02:45:07.870Z,5.37
2024-02-13T02:47:36.594Z,9.70
2024-02-13T02:50:05.524Z,6.90
2024-02-13T02:52:33.711Z,8.13
2024-02-13T02:55:02.121Z,9.27
2024-02-13T02:57:31.649Z,6.23
2024-02-13T03:00:00.666Z,5.40
2024-02-13T03:02:30.644Z,12.70
2024-02-13T03:05:10.137Z,9.20
2024-02-13T03:07:38.754Z,9.90
2024-02-13T03:10:11.550Z,9.67
2024-02-13T03:12:41.302Z,8.00
2024-02-13T03:15:10.732Z,5.53
2024-02-13T03:17:41.271Z,10.43
2024-02-13T03:20:12.380Z,9.83
2024-02-13T03:22:41.461Z,10.07
2024-02-13T03:25:10.574Z,4.70
2024-02-13T03:27:40.134Z,7.53
2024-02-13T03:30:11.369Z,9.27
2024-02-13T03:32:39.728Z,7.13
2024-02-13T03:35:08.779Z,9.17
2024-02-13T03:37:37.690Z,7.63
2024-02-13T03:40:09.708Z,10.63
2024-02-13T03:42:38.408Z,10.00
2024-02-13T03:45:10.886Z,6.37
2024-02-13T03:47:39.525Z,5.27
2024-02-13T03:50:09.375Z,6.37
2024-02-13T03:52:38.152Z,6.27
2024-02-13T03:55:07.595Z,3.90
2024-02-13T03:57:36.961Z,5.57
2024-02-13T04:00:11.974Z,6.10
2024-02-13T04:02:41.180Z,6.50
2024-02-13T04:05:10.578Z,5.23
2024-02-13T04:07:39.808Z,7.93
2024-02-13T04:10:10.040Z,5.30
2024-02-13T04:12:39.419Z,5.07
2024-02-13T04:15:10.336Z,3.00
2024-02-13T04:17:38.803Z,6.27
2024-02-13T04:20:10.138Z,6.53
2024-02-13T04:22:38.629Z,3.73
2024-02-13T04:25:09.301Z,5.60
2024-02-13T04:27:38.386Z,3.07
2024-02-13T04:30:10.194Z,7.30
2024-02-13T04:32:40.028Z,7.17
2024-02-13T04:35:10.244Z,5.80
2024-02-13T04:37:38.901Z,6.63
2024-02-13T04:40:12.261Z,4.90
2024-02-13T04:42:42.221Z,2.47
2024-02-13T04:45:12.267Z,2.73
2024-02-13T04:47:40.810Z,5.67
2024-02-13T04:50:12.117Z,4.03
2024-02-13T04:52:42.186Z,6.73
2024-02-13T04:55:12.054Z,5.87
2024-02-13T04:57:41.116Z,5.97
2024-02-13T05:00:19.902Z,5.33
2024-02-13T05:02:51.334Z,3.40
2024-02-13T05:05:40.167Z,5.80
2024-02-13T05:08:10.328Z,6.47
2024-02-13T05:10:38.599Z,6.07
2024-02-13T05:13:07.207Z,7.97
2024-02-13T05:15:38.077Z,10.10
2024-02-13T05:18:07.888Z,7.87
2024-02-13T05:20:37.191Z,9.47
2024-02-13T05:23:07.671Z,11.30
2024-02-13T05:25:35.906Z,8.70
2024-02-13T05:28:04.858Z,8.97
2024-02-13T05:30:37.551Z,9.80
2024-02-13T05:33:07.120Z,8.63
2024-02-13T05:35:39.198Z,4.07
2024-02-13T05:38:08.101Z,4.73
2024-02-13T05:40:38.472Z,25.67
2024-02-13T05:43:09.484Z,32.03
2024-02-13T05:45:39.109Z,26.50
2024-02-13T05:48:10.948Z,24.00
2024-02-13T05:50:39.399Z,21.40
2024-02-13T05:53:08.552Z,21.57
2024-02-13T05:55:36.814Z,21.77
2024-02-13T05:58:06.292Z,17.03
2024-02-13T06:00:34.817Z,10.47
2024-02-13T06:03:06.372Z,11.33
2024-02-13T06:05:35.108Z,8.43
2024-02-13T06:08:03.758Z,7.00
2024-02-13T06:10:34.918Z,6.90
2024-02-13T06:13:03.410Z,6.47
2024-02-13T06:15:31.759Z,6.70
2024-02-13T06:18:00.307Z,9.67
2024-02-13T06:20:30.068Z,7.87
2024-02-13T06:22:58.273Z,5.87
2024-02-13T06:25:26.913Z,6.70
2024-02-13T06:27:55.268Z,8.23
2024-02-13T06:30:23.917Z,6.00
2024-02-13T06:32:52.877Z,9.63
2024-02-13T06:35:21.469Z,9.20
2024-02-13T06:37:54.258Z,6.13
2024-02-13T06:40:22.483Z,9.03
2024-02-13T06:42:50.900Z,7.47
2024-02-13T06:45:19.416Z,6.47
2024-02-13T06:47:48.166Z,8.47
2024-02-13T06:50:17.635Z,8.77
2024-02-13T06:52:45.991Z,7.20
2024-02-13T06:55:15.756Z,8.97
2024-02-13T06:57:44.052Z,5.47
2024-02-13T07:00:14.622Z,10.60
2024-02-13T07:02:43.373Z,9.10
2024-02-13T07:05:12.581Z,7.83
2024-02-13T07:07:47.326Z,8.00
2024-02-13T07:10:18.974Z,10.93
2024-02-13T07:12:47.430Z,8.13
2024-02-13T07:15:16.433Z,5.60
2024-02-13T07:17:53.262Z,8.10
2024-02-13T07:20:29.617Z,8.03
2024-02-13T07:22:58.397Z,6.67
2024-02-13T07:25:28.031Z,6.23
2024-02-13T07:27:57.514Z,6.50
2024-02-13T07:30:27.191Z,7.40
2024-02-13T07:32:57.983Z,7.70
2024-02-13T07:35:26.379Z,5.97
2024-02-13T07:37:55.006Z,9.53
2024-02-13T07:40:23.638Z,9.97
2024-02-13T07:42:53.264Z,8.47
2024-02-13T07:45:22.373Z,6.37
2024-02-13T07:47:52.599Z,7.70
2024-02-13T07:50:22.487Z,8.20
2024-02-13T07:52:50.886Z,6.70
2024-02-13T07:55:20.247Z,7.47
2024-02-13T07:57:51.385Z,6.47
2024-02-13T08:00:24.928Z,8.47
2024-02-13T08:02:54.709Z,10.97
2024-02-13T08:05:23.446Z,9.13
2024-02-13T08:07:52.513Z,12.40
2024-02-13T08:10:21.173Z,8.83
2024-02-13T08:12:51.783Z,8.00
2024-02-13T08:15:21.455Z,12.77
2024-02-13T08:17:50.148Z,7.97
2024-02-13T08:20:18.841Z,7.23
2024-02-13T08:22:47.118Z,10.30
2024-02-13T08:25:15.705Z,10.57
2024-02-13T08:27:44.154Z,7.60
2024-02-13T08:30:13.832Z,11.10
2024-02-13T08:32:45.578Z,16.70
2024-02-13T08:35:14.831Z,8.47
2024-02-13T08:37:43.357Z,9.13
2024-02-13T08:40:16.046Z,7.83
2024-02-13T08:42:46.205Z,6.67
2024-02-13T08:45:14.557Z,14.67
2024-02-13T08:47:44.341Z,12.97
2024-02-13T08:50:14.496Z,11.70
2024-02-13T08:52:42.983Z,6.60
2024-02-13T08:55:12.251Z,11.83
2024-02-13T08:57:40.513Z,8.03
2024-02-13T09:00:11.725Z,8.73
2024-02-13T09:02:40.232Z,10.53
2024-02-13T09:05:11.284Z,10.10
2024-02-13T09:07:43.680Z,9.63
2024-02-13T09:10:13.835Z,12.77
2024-02-13T09:12:45.778Z,9.77
2024-02-13T09:15:14.426Z,9.97
2024-02-13T09:17:44.477Z,10.43
2024-02-13T09:20:16.814Z,7.93
2024-02-13T09:22:46.580Z,14.57
2024-02-13T09:25:15.597Z,12.87
2024-02-13T09:27:44.692Z,8.97
2024-02-13T09:30:15.010Z,7.70
2024-02-13T09:32:43.381Z,9.40
2024-02-13T09:35:12.160Z,7.10
2024-02-13T09:37:44.576Z,8.97
2024-02-13T09:40:15.633Z,9.60
2024-02-13T09:42:44.558Z,6.03
2024-02-13T09:45:15.420Z,6.30
2024-02-13T09:47:44.180Z,5.53
2024-02-13T09:50:15.626Z,6.00
2024-02-13T09:52:49.377Z,6.33
2024-02-13T09:55:19.224Z,5.17
2024-02-13T09:57:50.884Z,7.80
2024-02-13T10:00:21.282Z,9.77
2024-02-13T10:02:50.343Z,4.90
2024-02-13T10:05:22.351Z,4.70
2024-02-13T10:07:52.218Z,8.23
2024-02-13T10:10:20.451Z,6.03
2024-02-13T10:12:54.702Z,4.93
2024-02-13T10:15:23.844Z,6.00
2024-02-13T10:17:53.442Z,4.30
2024-02-13T10:20:22.200Z,5.10
2024-02-13T10:22:56.156Z,4.47
2024-02-13T10:25:26.900Z,3.83
2024-02-13T10:27:55.669Z,7.33
2024-02-13T10:30:25.136Z,5.90
2024-02-13T10:32:53.739Z,5.47
2024-02-13T10:35:23.565Z,2.80
2024-02-13T10:37:54.161Z,5.47
2024-02-13T10:40:24.857Z,4.27
2024-02-13T10:42:53.869Z,5.00
2024-02-13T10:45:25.735Z,3.83
2024-02-13T10:47:55.913Z,8.07
2024-02-13T10:50:24.986Z,3.33
2024-02-13T10:52:56.472Z,5.67
2024-02-13T10:55:24.987Z,6.67
2024-02-13T10:57:55.541Z,9.73
2024-02-13T11:00:24.783Z,5.90
2024-02-13T11:02:53.885Z,4.77
2024-02-13T11:05:29.536Z,9.13
2024-02-13T11:07:59.447Z,5.27
2024-02-13T11:10:30.606Z,2.30
2024-02-13T11:12:59.211Z,5.30
2024-02-13T11:15:30.723Z,3.23
2024-02-13T11:17:59.318Z,4.23
2024-02-13T11:20:30.327Z,4.93
2024-02-13T11:23:01.854Z,4.50
2024-02-13T11:25:32.388Z,6.33
2024-02-13T11:28:03.391Z,3.90
2024-02-13T11:30:32.278Z,6.20
2024-02-13T11:33:07.241Z,2.87
2024-02-13T11:35:41.202Z,2.00
2024-02-13T11:38:17.512Z,3.00
2024-02-13T11:40:50.103Z,3.80
2024-02-13T11:43:22.811Z,4.63
2024-02-13T11:45:51.788Z,2.90
2024-02-13T11:48:25.102Z,2.10
2024-02-13T11:50:54.140Z,6.90
2024-02-13T11:53:24.400Z,5.60
2024-02-13T11:55:55.581Z,3.70
2024-02-13T11:58:27.823Z,7.43
2024-02-13T12:01:04.944Z,8.57
2024-02-13T12:03:36.576Z,4.97
2024-02-13T12:06:07.703Z,4.27
2024-02-13T12:08:42.757Z,6.57
2024-02-13T12:11:12.162Z,8.13
2024-02-13T12:13:40.710Z,6.27
2024-02-13T12:16:10.717Z,5.37
2024-02-13T12:18:41.033Z,4.50
2024-02-13T12:21:09.655Z,3.93
2024-02-13T12:23:40.188Z,8.03
2024-02-13T12:26:09.743Z,3.57
2024-02-13T12:28:38.471Z,4.50
2024-02-13T12:31:07.729Z,5.90
2024-02-13T12:33:38.090Z,3.17
2024-02-13T12:36:20.010Z,3.27
2024-02-13T12:38:51.139Z,3.17
2024-02-13T12:41:19.760Z,4.00
2024-02-13T12:43:49.392Z,3.47
2024-02-13T12:46:18.541Z,3.53
2024-02-13T12:48:49.583Z,6.23
2024-02-13T12:51:19.244Z,4.13
2024-02-13T12:53:51.312Z,3.17
2024-02-13T12:56:20.285Z,7.20
2024-02-13T12:58:52.838Z,6.07
2024-02-13T13:01:23.659Z,5.10
2024-02-13T13:04:00.273Z,6.07
2024-02-13T13:06:34.559Z,5.00
2024-02-13T13:09:16.162Z,5.53
2024-02-13T13:11:49.077Z,6.57
2024-02-13T13:14:19.832Z,4.40
2024-02-13T13:16:48.261Z,5.57
2024-02-13T13:19:16.646Z,5.17
2024-02-13T13:21:46.359Z,2.50
2024-02-13T13:24:15.992Z,4.33
2024-02-13T13:26:44.464Z,6.73
2024-02-13T13:29:14.632Z,6.00
2024-02-13T13:31:42.852Z,6.03
2024-02-13T13:34:16.923Z,3.87
2024-02-13T13:36:45.933Z,3.53
2024-02-13T13:39:15.787Z,4.53
2024-02-13T13:41:44.609Z,4.57
2024-02-13T13:44:14.925Z,4.30
2024-02-13T13:46:43.780Z,6.13
2024-02-13T13:49:13.284Z,3.37
2024-02-13T13:51:41.792Z,3.73
2024-02-13T13:54:11.163Z,8.30
2024-02-13T13:56:42.129Z,6.57
2024-02-13T13:59:10.458Z,4.60
2024-02-13T14:01:39.076Z,6.43
2024-02-13T14:04:12.867Z,2.90
2024-02-13T14:06:42.746Z,4.73
2024-02-13T14:09:11.208Z,6.37
2024-02-13T14:11:41.051Z,3.50
2024-02-13T14:14:10.077Z,2.37
2024-02-13T14:16:38.453Z,5.30
2024-02-13T14:19:07.121Z,7.37
2024-02-13T14:21:35.701Z,4.70
2024-02-13T14:24:04.908Z,3.77
2024-02-13T14:26:35.637Z,4.10
2024-02-13T14:29:05.967Z,3.83
2024-02-13T14:31:34.671Z,2.67
2024-02-13T14:34:03.425Z,3.30
2024-02-13T14:36:31.780Z,2.33
2024-02-13T14:39:00.354Z,6.50
2024-02-13T14:41:31.311Z,5.77
2024-02-13T14:43:59.906Z,5.03
2024-02-13T14:46:29.960Z,5.67
2024-02-13T14:48:59.251Z,4.10
2024-02-13T14:51:28.250Z,2.57
2024-02-13T14:53:57.319Z,3.97
2024-02-13T14:56:25.921Z,7.30
2024-02-13T14:58:54.890Z,2.63
2024-02-13T15:01:26.800Z,5.10
2024-02-13T15:03:56.734Z,8.80
2024-02-13T15:06:37.545Z,5.30
2024-02-13T15:09:06.385Z,3.83
2024-02-13T15:11:34.919Z,4.57
2024-02-13T15:14:08.227Z,2.57
2024-02-13T15:16:36.506Z,4.70
2024-02-13T15:19:07.739Z,3.43
2024-02-13T15:21:36.614Z,3.67
2024-02-13T15:24:05.603Z,4.93
2024-02-13T15:26:34.517Z,1.90
2024-02-13T15:29:05.135Z,4.60
2024-02-13T15:31:33.387Z,2.63
2024-02-13T15:34:01.869Z,3.37
2024-02-13T15:36:34.570Z,2.23
2024-02-13T15:39:21.272Z,5.70
2024-02-13T15:42:07.768Z,2.70
2024-02-13T15:45:02.303Z,5.00
2024-02-13T15:47:34.870Z,6.20
2024-02-13T15:50:06.664Z,3.20
2024-02-13T15:52:36.641Z,2.40
2024-02-13T15:55:09.370Z,3.60
2024-02-13T15:57:39.452Z,7.13
2024-02-13T16:00:15.993Z,4.77
2024-02-13T16:02:46.041Z,5.97
2024-02-13T16:05:16.408Z,3.90
2024-02-13T16:07:46.839Z,5.87
2024-02-13T16:10:16.329Z,7.70
2024-02-13T16:12:45.146Z,4.00
2024-02-13T16:15:13.800Z,5.07
2024-02-13T16:17:43.569Z,4.87
2024-02-13T16:20:13.992Z,6.63
2024-02-13T16:22:45.380Z,5.47
2024-02-13T16:25:17.540Z,5.83
2024-02-13T16:27:50.114Z,5.63
2024-02-13T16:30:20.053Z,6.43
2024-02-13T16:32:49.694Z,9.50
2024-02-13T16:35:18.521Z,8.17
2024-02-13T16:37:46.775Z,8.33
2024-02-13T16:40:19.000Z,9.80
2024-02-13T16:42:53.748Z,8.13
2024-02-13T16:45:25.096Z,6.90
2024-02-13T16:47:54.329Z,6.27
2024-02-13T16:50:23.201Z,6.43
2024-02-13T16:52:52.862Z,13.37
2024-02-13T16:55:25.820Z,10.17
2024-02-13T16:57:54.681Z,7.10
2024-02-13T17:00:23.408Z,9.70
2024-02-13T17:02:51.790Z,7.10
2024-02-13T17:05:23.935Z,14.13
2024-02-13T17:07:54.568Z,24.13
2024-02-13T17:10:24.319Z,19.03
2024-02-13T17:12:52.843Z,6.47
2024-02-13T17:15:22.293Z,7.63
2024-02-13T17:17:51.069Z,5.47
2024-02-13T17:20:20.262Z,5.57
2024-02-13T17:22:49.100Z,3.93
2024-02-13T17:25:17.938Z,3.53
2024-02-13T17:27:47.638Z,6.53
2024-02-13T17:30:16.900Z,7.03
2024-02-13T17:32:46.680Z,17.77
2024-02-13T17:35:15.666Z,10.37
2024-02-13T17:37:44.170Z,8.13
2024-02-13T17:40:15.008Z,3.37
2024-02-13T17:42:43.611Z,3.87
2024-02-13T17:45:13.727Z,3.40
2024-02-13T17:47:42.155Z,2.73
2024-02-13T17:50:11.500Z,3.57
2024-02-13T17:52:42.101Z,4.30
2024-02-13T17:55:17.189Z,4.03
2024-02-13T17:57:46.640Z,3.63
2024-02-13T18:00:21.200Z,3.20
2024-02-13T18:02:50.017Z,3.50
2024-02-13T18:05:19.389Z,4.57
2024-02-13T18:07:48.113Z,5.93
2024-02-13T18:10:16.561Z,3.70
2024-02-13T18:12:45.154Z,3.47
2024-02-13T18:15:15.051Z,2.13
2024-02-13T18:17:46.466Z,2.63
2024-02-13T18:20:17.017Z,10.27
2024-02-13T18:22:46.400Z,6.73
2024-02-13T18:25:14.783Z,6.37
2024-02-13T18:27:43.280Z,5.77
2024-02-13T18:30:12.975Z,4.80
2024-02-13T18:32:42.513Z,2.77
2024-02-13T18:35:12.620Z,4.60
2024-02-13T18:37:42.434Z,2.83
2024-02-13T18:40:15.161Z,3.37
2024-02-13T18:42:44.060Z,21.70
2024-02-13T18:45:12.603Z,13.80
2024-02-13T18:47:45.779Z,4.33
2024-02-13T18:50:17.937Z,5.70
2024-02-13T18:52:48.433Z,3.33
2024-02-13T18:55:16.888Z,2.77
2024-02-13T18:57:45.628Z,3.40
2024-02-13T19:00:15.421Z,4.50
2024-02-13T19:02:43.786Z,5.57
2024-02-13T19:05:15.631Z,5.67
2024-02-13T19:07:44.003Z,9.50
2024-02-13T19:10:13.025Z,6.53
2024-02-13T19:12:43.725Z,6.30
2024-02-13T19:15:12.930Z,8.00
2024-02-13T19:17:41.487Z,6.50
2024-02-13T19:20:13.472Z,5.57
2024-02-13T19:22:43.331Z,7.07
2024-02-13T19:25:12.881Z,10.20
2024-02-13T19:27:41.333Z,7.73
2024-02-13T19:30:12.386Z,9.03
2024-02-13T19:32:40.759Z,7.47
2024-02-13T19:35:10.637Z,5.63
2024-02-13T19:37:39.249Z,5.93
2024-02-13T19:40:10.928Z,3.83
2024-02-13T19:42:39.705Z,3.17
2024-02-13T19:45:09.102Z,4.07
2024-02-13T19:47:37.569Z,4.60
2024-02-13T19:50:07.415Z,5.93
2024-02-13T19:52:37.239Z,3.27
2024-02-13T19:55:06.913Z,3.40
2024-02-13T19:57:37.731Z,4.37
2024-02-13T20:00:10.497Z,5.57
2024-02-13T20:02:39.558Z,3.97
2024-02-13T20:05:08.546Z,3.90
2024-02-13T20:07:39.220Z,5.03
2024-02-13T20:10:09.668Z,5.37
2024-02-13T20:12:39.372Z,10.37
2024-02-13T20:15:09.839Z,2.57
2024-02-13T20:17:38.667Z,3.77
2024-02-13T20:20:09.733Z,4.47
2024-02-13T20:22:38.132Z,5.47
2024-02-13T20:25:07.175Z,5.23
2024-02-13T20:27:35.576Z,5.23
2024-02-13T20:30:10.087Z,8.20
2024-02-13T20:32:38.575Z,6.80
2024-02-13T20:35:08.549Z,6.00
2024-02-13T20:37:40.253Z,4.73
2024-02-13T20:40:11.815Z,8.70
2024-02-13T20:42:41.349Z,8.47
2024-02-13T20:45:20.586Z,5.00
2024-02-13T20:47:52.913Z,6.47
2024-02-13T20:50:22.280Z,4.33
2024-02-13T20:52:50.918Z,8.23
2024-02-13T20:55:23.735Z,8.67
2024-02-13T20:57:56.461Z,10.93
2024-02-13T21:00:26.688Z,9.00
2024-02-13T21:02:55.661Z,7.63
2024-02-13T21:05:25.673Z,8.73
2024-02-13T21:07:54.191Z,7.47
2024-02-13T21:10:24.106Z,7.87
2024-02-13T21:12:52.429Z,8.97
2024-02-13T21:15:20.817Z,6.50
2024-02-13T21:17:51.024Z,6.50
2024-02-13T21:20:21.474Z,8.57
2024-02-13T21:23:09.604Z,6.87
2024-02-13T21:25:38.434Z,4.67
2024-02-13T21:28:07.647Z,4.67
2024-02-13T21:30:36.149Z,4.23
2024-02-13T21:33:08.666Z,3.53
2024-02-13T21:35:37.113Z,6.13
2024-02-13T21:38:06.380Z,5.27
2024-02-13T21:40:35.415Z,7.87
2024-02-13T21:43:06.209Z,10.60
2024-02-13T21:45:34.599Z,14.67
2024-02-13T21:48:09.957Z,9.00
2024-02-13T21:50:38.546Z,13.43
2024-02-13T21:53:06.931Z,10.70
2024-02-13T21:55:35.840Z,12.17
2024-02-13T21:58:04.147Z,9.67
2024-02-13T22:00:33.308Z,5.17
2024-02-13T22:03:02.396Z,5.40
2024-02-13T22:05:32.181Z,6.13
2024-02-13T22:08:00.639Z,5.20
2024-02-13T22:10:28.926Z,4.73
2024-02-13T22:12:57.352Z,4.30
2024-02-13T22:15:25.846Z,4.10
2024-02-13T22:17:54.366Z,6.07
2024-02-13T22:20:22.947Z,3.23
2024-02-13T22:22:53.310Z,3.47
2024-02-13T22:25:21.576Z,4.43
2024-02-13T22:27:50.238Z,3.93
2024-02-13T22:30:19.983Z,3.80
2024-02-13T22:32:48.550Z,3.33
2024-02-13T22:35:17.251Z,3.33
2024-02-13T22:37:46.024Z,3.13
2024-02-13T22:40:16.207Z,9.43
2024-02-13T22:42:44.520Z,14.00
2024-02-13T22:45:12.926Z,15.37
2024-02-13T22:47:41.732Z,17.20
2024-02-13T22:50:12.430Z,14.10
2024-02-13T22:52:40.854Z,12.23
2024-02-13T22:55:10.450Z,29.70
2024-02-13T22:57:40.871Z,28.97
2024-02-13T23:00:31.487Z,28.90
2024-02-13T23:02:59.857Z,18.83
2024-02-13T23:05:28.413Z,7.33
2024-02-13T23:07:56.880Z,6.33
2024-02-13T23:10:25.530Z,4.57
2024-02-13T23:12:57.021Z,5.07
2024-02-13T23:15:26.419Z,6.80
2024-02-13T23:17:55.309Z,4.67
2024-02-13T23:20:23.892Z,6.83
2024-02-13T23:22:52.547Z,6.07
2024-02-13T23:25:21.779Z,4.67
2024-02-13T23:27:50.823Z,3.00
2024-02-13T23:30:21.585Z,4.80
2024-02-13T23:32:50.453Z,2.40
2024-02-13T23:35:19.576Z,4.47
2024-02-13T23:37:47.983Z,4.13
2024-02-13T23:40:18.173Z,3.33
2024-02-13T23:42:49.375Z,6.20
2024-02-13T23:45:17.992Z,6.50
2024-02-13T23:47:47.962Z,6.17
2024-02-13T23:50:17.009Z,4.23
2024-02-13T23:52:46.131Z,4.23
2024-02-13T23:55:15.772Z,4.40
2024-02-13T23:57:46.174Z,4.10
